Zelenodolsk — UYXW — position and weather

sailwx.info

Track history (hours):
 
Tides and Currents Weather Stations Pressure Air Temp Water Temp Dewpoint Dewpoint Depression Visibility Wind Speed Wind Dir Waves Ship Positions

Zelenodolsk

Last reported at 2018-Jul-18 15:01 UTC. Time now 2018-Jul-18 22:14 UTC.
Position N 48°13' E 015°14'.

Length 32 m; draft 2.2 m.

Type: Ship. MMSI: 272029800.

Date/timePositionNaut miles runAvg speedWind from/ knotsBaromVisibWave heightAir tempDewpointWater temp
2018-Jul-18 15:01N 48°13' E 015°14'0 6.5
2018-Jul-18 15:00N 48°13' E 015°14'4 7.0
2018-Jul-18 14:30N 48°13' E 015°09'3 3.3
2018-Jul-18 13:30N 48°11' E 015°04'1 2.2
2018-Jul-18 13:00N 48°12' E 015°03'29 3.3
2018-Jul-18 04:20N 48°17' E 014°20'1 0.1
2018-Jul-17 23:22N 48°18' E 014°20'2 2.2
2018-Jul-17 22:30N 48°16' E 014°22'3 6.8
2018-Jul-17 22:00N 48°19' E 014°19'  
Track history (hours):
 
Tides and Currents Weather Stations Pressure Air Temp Water Temp Dewpoint Dewpoint Depression Visibility Wind Speed Wind Dir Waves Ship Positions

Zelenodolsk

Last reported at 2018-Jul-18 15:01 UTC. Time now 2018-Jul-18 22:14 UTC.
Position N 48°13' E 015°14'.

Length 32 m; draft 2.2 m.

Type: Ship. MMSI: 272029800.

Date/timePositionNaut miles runAvg speedWind from/ knotsBaromVisibWave heightAir tempDewpointWater temp
2018-Jul-18 15:01N 48°13' E 015°14'0 6.5
2018-Jul-18 15:00N 48°13' E 015°14'4 7.0
2018-Jul-18 14:30N 48°13' E 015°09'3 3.3
2018-Jul-18 13:30N 48°11' E 015°04'1 2.2
2018-Jul-18 13:00N 48°12' E 015°03'29 3.3
2018-Jul-18 04:20N 48°17' E 014°20'1 0.1
2018-Jul-17 23:22N 48°18' E 014°20'2 2.2
2018-Jul-17 22:30N 48°16' E 014°22'3 6.8
2018-Jul-17 22:00N 48°19' E 014°19'  

Dump ship's entire track history